Jeanerette, Louisiana
Current Conditions -  °F | °C
As of 2:53 PM on Thursday 23 Oct 2014 (Local Time) from KARA Reporting Station
Clear Clear  
Wind Chill: 25°   Ceiling: Unl
Heat Index: 26°   Visibility: 10mi
Dew Point: 10°   Wind: 9mph
Humidity: 39%   Direction: 360°N
Pressure: 30.06"   Gusts: NA
Location:  29.91°N, 91.66°W
Report Text: KARA 231953Z AUTO 36008KT 10SM CLR 25/10 A3006 RMK AO2 SLP177 T02500100
Loading
Personal Weather Stations






























Interactive Weather Map
Tropical Storm Tracking
New forecast layout! Learn more

10-Day Weather Forecast

Advertisements
Track Severe Weather on mobile